x

Shumagin Islands - 85nm South Of Sand Point, Ak (46075) Wave Buoy

4:50 - Tue 4th Aug 2015 All times are UTC.

  • Sig Wave height 5.6ft
  • Peak Period 7s
  • Average Period 6s
  • Wind
    7mph, 9mph gusts
  • Sea Temp 55°f
  • Air Temp 54°f
  • Sea Pressure 1009.7mb

More Historic Weather Station data

Upgrade to MSW Pro to gain access to the past 30 days of data for over 8000 Wavebouys and Weather Stations around the globe.

Join Pro

Comparision Forecast

View Surf forecast
   
mar. 08/04 4:50 5.5ft 7s 6s 7 9 mph 1009.7mb 55f 54f
3:50 5ft 7s 5s 13 16 mph 1009.7mb 55f 54f
2:50 5ft 7s 5s 16 20 mph 1009.3mb 55f 54f
1:50 5ft 7s 5s 9 11 mph 1009.1mb 55f 54f
12:50 5ft 7s 5s 11 13 mph 1009mb 54f 54f
11:50 5.5ft 7s 6s 9 11 mph 1009mb 55f 54f
10:50 5ft 8s 5s 9 11 mph 1008.8mb 55f 54f
9:50 6ft 7s 5s 11 13 mph 1008.2mb 55f 53f
8:50 5.5ft 8s 5s 11 13 mph 1008.1mb 55f 53f
7:50 6ft 8s 5s 13 16 mph 1007.5mb 55f 54f
6:50 7ft 8s 6s 16 18 mph 1006.7mb 55f 54f
5:50 6.5ft 8s 5s 16 18 mph 1006.4mb 55f 54f
4:50 8ft 8s  -  18 20 mph 1005.9mb 55f 54f
3:50 8ft 8s 6s 16 20 mph 1005.7mb 55f 54f
2:50 7.5ft 8s 6s 18 20 mph 1005.2mb 55f 55f
1:50 8.5ft 8s 6s 18 22 mph 1005.1mb 55f 54f
12:50 9ft 8s 6s 18 20 mph 1005.2mb 55f 54f
lun. 08/03 11:50 9.5ft 8s 6s 16 18 mph 1005.4mb 55f 54f
10:50 9ft 8s 6s 18 22 mph 1005.4mb 55f 54f
9:50 9ft 8s 6s 18 20 mph 1005.4mb 55f 53f
8:50 10ft 9s 6s 16 20 mph 1005.4mb 55f 53f
7:50 9ft 8s 6s 13 18 mph 1005.5mb 55f 53f
6:50 8.5ft 8s 6s 16 20 mph 1005.4mb 55f 53f
5:50 9ft 8s 6s 18 20 mph 1005.6mb 55f 54f
4:50 9ft 8s 6s 18 20 mph 1005.6mb 55f 54f
3:50 10ft 8s 6s 18 22 mph 1005.9mb 55f 54f
2:50 9ft 9s 6s 25 27 mph 1005.5mb 55f 55f
1:50 11ft 9s 6s 22 27 mph 1005.8mb 55f 55f
12:50 11.5ft 8s 6s 25 29 mph 1006.1mb 55f 55f
11:50 13.5ft 8s 6s 29 38 mph 1006.5mb 55f 55f
10:50 12.5ft 8s 6s 36 40 mph 1006.9mb 55f 55f
9:50 11.5ft 7s 6s 36 43 mph 1007.8mb 55f 54f
8:50 10.5ft 8s 5s 31 40 mph 1009.3mb 55f 54f
7:50 10ft 7s 5s 34 43 mph 1010.1mb 56f 55f
6:50 9ft 6s 5s 31 36 mph 1011.1mb 56f 56f
5:50 7ft 5s 5s 29 36 mph 1011.7mb 56f 56f
4:50 6.5ft 5s 5s 25 29 mph 1012.9mb 56f 56f
3:50 5ft 5s 4s 25 29 mph 1014mb 56f 56f
2:50 5ft 5s 4s 22 27 mph 1014.8mb 56f 55f
1:50 4ft 4s 4s 20 25 mph 1015.3mb 56f 55f
12:50 4ft 4s 4s 20 25 mph 1016.2mb 56f 55f
dim. 08/02 11:50 3.5ft 4s 4s 20 22 mph 1016.8mb 56f 55f
10:50 3.5ft 6s 4s 20 25 mph 1017.5mb 56f 55f
9:50 3.5ft 3s 4s 18 20 mph 1017.9mb 56f 56f
8:50 3ft 6s 4s 18 22 mph 1018.6mb 57f 56f
7:50 2.5ft 5s 4s 18 22 mph 1018.9mb 57f 57f
6:50 3ft 13s 5s 16 18 mph 1019.4mb 58f 58f
5:50 3.5ft 12s 5s 13 18 mph 1019.7mb 58f 58f
4:50 2.5ft 12s 5s 11 13 mph 1019.7mb 58f 58f
3:50 3ft 13s 5s 9 11 mph 1019.9mb 58f 57f
2:50 3ft 12s 6s 7 9 mph 1020.1mb 58f 57f
1:50 3ft 13s 6s 2
mph
1020.5mb 58f 57f
12:50 3ft 13s 6s 2 4 mph 1021mb 58f 57f
11:50 3ft 13s 7s 2
mph
1021.1mb 58f 56f
10:50 2.5ft 13s 6s  -  2 mph 1021.4mb 58f 56f
9:50 3ft 14s 6s  -  2 mph 1021.6mb 59f 56f
8:50 3ft 13s 6s 2
mph
1021.7mb 59f 56f
7:50 3ft 13s 7s 2 4 mph 1021.9mb 59f 56f
6:50 3ft 14s 6s 2 4 mph 1022mb 58f 56f
5:50 3ft 14s 5s 4
mph
1021.9mb 58f 57f
4:50 3ft 13s 6s 4
mph
1022mb 58f 57f
3:50 2.5ft 14s 6s 7 9 mph 1022.2mb 58f 57f
2:50 2.5ft 11s 6s 7
mph
1022.5mb 58f 57f
1:50 2.5ft 13s 6s 7 9 mph 1022.7mb 58f 56f
12:50 2.5ft 14s 6s 7 9 mph 1023mb 58f 56f
sam. 08/01 11:50 3ft 14s 6s 9 11 mph 1023.1mb 57f 56f
10:50 2.5ft 13s 6s 11
mph
1023.2mb 57f 56f
9:50 2.5ft 13s 7s 11 13 mph 1023.3mb 57f 55f
8:50 2.5ft 14s 7s 9 11 mph 1023.5mb 56f 56f
7:50 2.5ft 14s 6s 9 11 mph 1023.5mb 56f 55f
6:50 2.5ft 14s 6s 9 11 mph 1023.6mb 56f 56f
5:50 3ft 14s 7s 9
mph
1023.5mb 56f 56f
4:50 2.5ft 14s 8s 9
mph
1023.2mb 56f 56f
3:50 2.5ft 13s 7s 11 13 mph 1023.1mb 57f 55f
2:50 2.5ft 14s 9s 9 11 mph 1023.1mb 57f 55f
1:50 2.5ft 15s 9s 7 9 mph 1023.2mb 56f 55f
12:50 3ft 14s 10s 7 9 mph 1023.2mb 57f 56f
11:50 2.5ft 14s 10s 4 7 mph 1023.2mb 57f 56f
10:50 2.5ft 14s 10s 4 7 mph 1023.2mb 57f 56f
9:50 2.5ft 14s 10s 7
mph
1023.2mb 58f 56f
8:50 2.5ft 15s 9s 4
mph
1023.2mb 58f 56f
7:50 2.5ft 14s 9s 2 4 mph 1023.2mb 58f 56f
6:50 2.5ft 14s 10s 2 4 mph 1023.1mb 57f 56f
5:50 2.5ft 14s 10s 4
mph
1022.8mb 58f 57f
4:50 2.5ft 14s 10s 2 4 mph 1022.5mb 59f 57f
3:50 2.5ft 14s 10s 4 7 mph 1022.3mb 58f 57f
2:50 2.5ft 14s 9s 4 7 mph 1022.4mb 58f 56f
1:50 2.5ft 14s 9s 7
mph
1022.3mb 58f 56f
12:50 3ft 14s 10s 4 7 mph 1022.4mb 58f 56f
ven. 07/31 11:50 3ft 15s 10s 7
mph
1022.4mb 57f 56f
10:50 3ft 14s 10s 4 7 mph 1022.3mb 56f 56f
9:50 2.5ft 15s 9s 4 7 mph 1022.1mb 56f 55f
8:50 3.5ft 15s 10s 7 9 mph 1022.1mb 56f 55f
7:50 2.5ft 15s 9s 7 9 mph 1021.8mb 55f 55f
6:50 3ft 15s 10s 9
mph
1021.6mb 55f 55f